Time;durP1;ratioP1;P1;durP2;ratioP2;P2;SDS_P1;SDS_P2;PMS_P1;PMS_P2;Temp;Humidity;BMP_temperature;BMP_pressure;BME280_temperature;BME280_humidity;BME280_pressure;Samples;Min_cycle;Max_cycle;Signal;HPM_P1;HPM_P2
2021/06/21 00:01:35;;;;;;;1.58;1.10;;;;;;;;;;4451550;32;20232;-61
2021/06/21 00:04:01;;;;;;;2.45;1.23;;;;;;;;;;4450819;32;20225;-60
2021/06/21 00:06:26;;;;;;;3.70;1.95;;;;;;;;;;4451907;32;20326;-61
2021/06/21 00:08:52;;;;;;;1.87;1.05;;;;;;;;;;4450690;32;20332;-60
2021/06/21 00:11:18;;;;;;;2.00;1.10;;;;;;;;;;4451932;32;20547;-60
2021/06/21 00:13:43;;;;;;;1.95;1.20;;;;;;;;;;4460527;32;20208;-60
2021/06/21 00:16:10;;;;;;;2.30;1.10;;;;;;;;;;4455382;32;20232;-60
2021/06/21 00:18:35;;;;;;;2.70;1.65;;;;;;;;;;4467551;32;20197;-60
2021/06/21 00:21:01;;;;;;;1.48;1.30;;;;;;;;;;4467701;32;20336;-60
2021/06/21 00:23:26;;;;;;;2.03;1.00;;;;;;;;;;4467600;32;20192;-61
2021/06/21 00:25:52;;;;;;;2.03;1.40;;;;;;;;;;4467455;32;20597;-60
2021/06/21 00:28:18;;;;;;;1.60;0.80;;;;;;;;;;4467529;32;20310;-60
2021/06/21 00:30:44;;;;;;;1.60;0.90;;;;;;;;;;4462145;32;20299;-60
2021/06/21 00:33:11;;;;;;;1.87;1.15;;;;;;;;;;4451852;32;20392;-60
2021/06/21 00:35:36;;;;;;;1.65;1.20;;;;;;;;;;4451871;32;20298;-61
2021/06/21 00:38:04;;;;;;;2.00;1.40;;;;;;;;;;4451241;32;20381;-60
2021/06/21 00:40:30;;;;;;;1.12;0.93;;;;;;;;;;4450756;32;20251;-60
2021/06/21 00:42:55;;;;;;;1.12;1.02;;;;;;;;;;4452170;32;20213;-60
2021/06/21 00:45:22;;;;;;;1.25;1.15;;;;;;;;;;4450314;32;20251;-61
2021/06/21 00:47:49;;;;;;;2.90;1.42;;;;;;;;;;4450311;32;20299;-60
2021/06/21 00:50:15;;;;;;;1.10;1.00;;;;;;;;;;4451557;32;20250;-60
2021/06/21 00:52:41;;;;;;;1.85;1.15;;;;;;;;;;4450638;32;20233;-60
2021/06/21 00:55:08;;;;;;;1.45;1.35;;;;;;;;;;4451444;32;20343;-60
2021/06/21 00:57:36;;;;;;;2.75;1.33;;;;;;;;;;4450534;32;20326;-61
2021/06/21 01:00:06;;;;;;;3.00;1.65;;;;;;;;;;4451411;32;20561;-61
2021/06/21 01:02:32;;;;;;;5.62;3.42;;;;;;;;;;4450236;32;20229;-61
2021/06/21 01:04:57;;;;;;;3.58;2.80;;;;;;;;;;4451420;32;20242;-59
2021/06/21 01:07:23;;;;;;;4.72;2.62;;;;;;;;;;4451367;32;20735;-59
2021/06/21 01:09:51;;;;;;;4.75;3.05;;;;;;;;;;4450090;32;20236;-59
2021/06/21 01:12:47;;;;;;;4.22;3.62;;;;;;;;;;4450367;32;20330;-59
2021/06/21 01:15:39;;;;;;;5.85;4.53;;;;;;;;;;4456093;32;20238;-60
2021/06/21 01:18:16;;;;;;;7.20;5.15;;;;;;;;;;4450863;32;20572;-59
2021/06/21 01:20:54;;;;;;;10.15;5.80;;;;;;;;;;4467240;32;20616;-60
2021/06/21 01:23:40;;;;;;;14.27;8.70;;;;;;;;;;4466786;32;20235;-59
2021/06/21 01:26:15;;;;;;;7.28;4.35;;;;;;;;;;4466886;32;20196;-59
2021/06/21 01:28:59;;;;;;;9.50;3.87;;;;;;;;;;4465506;32;20223;-59
2021/06/21 01:31:36;;;;;;;4.82;3.37;;;;;;;;;;4455264;32;20251;-59
2021/06/21 01:34:02;;;;;;;2.67;2.08;;;;;;;;;;4451224;32;20212;-59
2021/06/21 01:36:28;;;;;;;3.87;2.60;;;;;;;;;;4451402;32;20632;-60
2021/06/21 01:38:59;;;;;;;5.55;2.20;;;;;;;;;;4449733;32;20225;-59
2021/06/21 01:41:30;;;;;;;2.87;1.90;;;;;;;;;;4451054;32;20578;-60
2021/06/21 01:43:59;;;;;;;2.72;2.00;;;;;;;;;;4450913;32;20204;-60
2021/06/21 01:46:28;;;;;;;5.05;2.58;;;;;;;;;;4451017;32;20300;-59
2021/06/21 01:48:58;;;;;;;26.62;15.85;;;;;;;;;;4450644;32;20201;-59
2021/06/21 01:51:24;;;;;;;30.08;18.95;;;;;;;;;;4449647;32;20266;-59
2021/06/21 01:53:53;;;;;;;18.25;10.75;;;;;;;;;;4450614;32;20212;-59
2021/06/21 01:56:24;;;;;;;7.78;5.78;;;;;;;;;;4450877;32;20212;-59
2021/06/21 01:58:52;;;;;;;3.92;2.87;;;;;;;;;;4450438;32;20205;-59
2021/06/21 02:01:20;;;;;;;3.40;2.67;;;;;;;;;;4450797;32;20220;-60
2021/06/21 02:03:48;;;;;;;3.05;2.03;;;;;;;;;;4450288;32;20251;-60
2021/06/21 02:06:14;;;;;;;2.08;1.87;;;;;;;;;;4449155;32;20576;-60
2021/06/21 02:08:42;;;;;;;2.90;2.15;;;;;;;;;;4449097;32;20233;-60
2021/06/21 02:11:09;;;;;;;3.62;2.00;;;;;;;;;;4449208;32;20232;-60
2021/06/21 02:13:35;;;;;;;3.37;2.17;;;;;;;;;;4458153;32;20625;-61
2021/06/21 02:16:02;;;;;;;3.35;2.03;;;;;;;;;;4464501;32;20314;-60
2021/06/21 02:18:28;;;;;;;2.30;1.62;;;;;;;;;;4450370;32;20728;-60
2021/06/21 02:20:54;;;;;;;2.25;1.83;;;;;;;;;;4450245;32;20613;-60
2021/06/21 02:23:23;;;;;;;1.50;1.12;;;;;;;;;;4450414;32;20272;-60
2021/06/21 02:25:50;;;;;;;2.17;1.70;;;;;;;;;;4450206;32;20321;-60
2021/06/21 02:28:21;;;;;;;2.53;1.42;;;;;;;;;;4450608;32;20215;-59
2021/06/21 02:30:50;;;;;;;5.07;1.80;;;;;;;;;;4454221;32;20546;-60
2021/06/21 02:33:17;;;;;;;1.42;1.08;;;;;;;;;;4465633;32;20212;-60
2021/06/21 02:35:44;;;;;;;2.75;1.30;;;;;;;;;;4465838;32;20199;-60
2021/06/21 02:38:10;;;;;;;3.12;1.42;;;;;;;;;;4465766;32;20204;-60
2021/06/21 02:40:36;;;;;;;4.03;1.37;;;;;;;;;;4465900;32;20279;-60
2021/06/21 02:43:02;;;;;;;2.10;1.27;;;;;;;;;;4464974;32;20295;-59
2021/06/21 02:45:29;;;;;;;2.72;1.77;;;;;;;;;;4465343;32;20275;-60
2021/06/21 02:47:55;;;;;;;1.75;1.25;;;;;;;;;;4464780;32;20254;-60
2021/06/21 02:50:21;;;;;;;1.62;1.17;;;;;;;;;;4465480;32;20530;-60
2021/06/21 02:53:01;;;;;;;1.85;1.40;;;;;;;;;;4465676;32;20333;-60
2021/06/21 02:55:46;;;;;;;3.83;1.67;;;;;;;;;;4465435;32;20387;-61
2021/06/21 02:58:27;;;;;;;2.05;1.80;;;;;;;;;;4465952;32;20335;-60
2021/06/21 03:00:57;;;;;;;1.77;1.33;;;;;;;;;;4465991;32;20585;-61
2021/06/21 03:03:26;;;;;;;2.53;1.92;;;;;;;;;;4468570;32;20232;-60
2021/06/21 03:05:52;;;;;;;1.65;1.20;;;;;;;;;;4469095;32;20199;-60
2021/06/21 03:08:19;;;;;;;2.25;1.75;;;;;;;;;;4468619;32;20267;-60
2021/06/21 03:10:47;;;;;;;6.47;1.40;;;;;;;;;;4468696;32;20209;-60
2021/06/21 03:13:13;;;;;;;4.40;2.40;;;;;;;;;;4462934;32;20255;-60
2021/06/21 03:15:39;;;;;;;4.43;3.00;;;;;;;;;;4452641;32;20234;-60
2021/06/21 03:18:07;;;;;;;4.85;3.10;;;;;;;;;;4465625;32;20224;-60
2021/06/21 03:20:32;;;;;;;6.47;3.25;;;;;;;;;;4468834;32;20258;-60
2021/06/21 03:22:59;;;;;;;3.10;2.80;;;;;;;;;;4468834;32;20285;-60
2021/06/21 03:25:30;;;;;;;5.93;3.08;;;;;;;;;;4468481;32;20349;-60
2021/06/21 03:27:57;;;;;;;4.03;2.62;;;;;;;;;;4468770;32;20221;-60
2021/06/21 03:30:24;;;;;;;5.55;2.95;;;;;;;;;;4464939;32;20212;-60
2021/06/21 03:32:52;;;;;;;7.47;3.35;;;;;;;;;;4451839;32;20221;-60
2021/06/21 03:35:21;;;;;;;6.72;3.17;;;;;;;;;;4452752;32;20291;-60
2021/06/21 03:37:47;;;;;;;6.50;3.37;;;;;;;;;;4451585;32;20633;-59
2021/06/21 03:40:13;;;;;;;4.80;3.15;;;;;;;;;;4452617;32;20547;-59
2021/06/21 03:42:40;;;;;;;5.18;3.12;;;;;;;;;;4452697;32;20661;-59
2021/06/21 03:45:07;;;;;;;6.78;2.58;;;;;;;;;;4451120;32;20364;-60
2021/06/21 03:47:34;;;;;;;3.55;3.00;;;;;;;;;;4452963;32;20216;-59
2021/06/21 03:49:59;;;;;;;3.40;2.50;;;;;;;;;;4452174;32;20228;-59
2021/06/21 03:52:25;;;;;;;3.05;2.60;;;;;;;;;;4452452;32;20221;-59
2021/06/21 03:55:06;;;;;;;5.45;2.87;;;;;;;;;;4452362;32;20200;-60
2021/06/21 03:57:54;;;;;;;3.62;2.42;;;;;;;;;;4451202;32;20254;-60
2021/06/21 04:00:23;;;;;;;5.95;1.95;;;;;;;;;;4452312;32;20213;-60
2021/06/21 04:02:48;;;;;;;2.78;1.98;;;;;;;;;;4452302;32;20233;-60
2021/06/21 04:05:14;;;;;;;3.72;2.35;;;;;;;;;;4452072;32;20268;-60
2021/06/21 04:07:41;;;;;;;5.53;2.00;;;;;;;;;;4451171;32;20266;-60
2021/06/21 04:10:10;;;;;;;2.40;2.10;;;;;;;;;;4452175;32;20375;-60
2021/06/21 04:12:37;;;;;;;3.33;2.62;;;;;;;;;;4453909;32;20220;-61
2021/06/21 04:15:05;;;;;;;3.25;2.70;;;;;;;;;;4467249;32;20735;-60
2021/06/21 04:17:30;;;;;;;3.15;2.33;;;;;;;;;;4458468;32;20225;-60
2021/06/21 04:19:56;;;;;;;3.78;2.55;;;;;;;;;;4451802;32;20268;-60
2021/06/21 04:22:21;;;;;;;4.82;2.72;;;;;;;;;;4452512;32;20216;-59
2021/06/21 04:24:47;;;;;;;6.47;2.85;;;;;;;;;;4451735;32;20212;-59
2021/06/21 04:27:13;;;;;;;3.20;2.70;;;;;;;;;;4452308;32;20208;-60
2021/06/21 04:29:39;;;;;;;3.53;2.37;;;;;;;;;;4451405;32;20617;-60
2021/06/21 04:32:05;;;;;;;4.57;2.42;;;;;;;;;;4465759;32;20224;-59
2021/06/21 04:34:30;;;;;;;5.68;2.83;;;;;;;;;;4467318;32;20242;-60
2021/06/21 04:36:56;;;;;;;6.22;3.40;;;;;;;;;;4467490;32;20899;-59
2021/06/21 04:39:21;;;;;;;3.60;2.55;;;;;;;;;;4466773;32;20197;-59
2021/06/21 04:41:47;;;;;;;3.53;2.80;;;;;;;;;;4467006;32;20518;-60
2021/06/21 04:44:12;;;;;;;4.32;2.70;;;;;;;;;;4465301;32;20236;-60
2021/06/21 04:46:38;;;;;;;2.15;1.95;;;;;;;;;;4466963;32;20558;-59
2021/06/21 04:49:07;;;;;;;5.07;2.65;;;;;;;;;;4466521;32;20324;-59
2021/06/21 04:51:34;;;;;;;3.00;2.70;;;;;;;;;;4466647;32;20220;-59
2021/06/21 04:54:00;;;;;;;5.45;3.12;;;;;;;;;;4464964;32;20406;-59
2021/06/21 04:56:25;;;;;;;3.10;2.65;;;;;;;;;;4465934;32;20549;-60
2021/06/21 04:58:51;;;;;;;4.15;2.75;;;;;;;;;;4464488;32;20228;-59
2021/06/21 05:01:16;;;;;;;5.47;3.28;;;;;;;;;;4466055;32;20291;-59
2021/06/21 05:03:42;;;;;;;7.15;3.55;;;;;;;;;;4464980;32;20228;-60
2021/06/21 05:06:07;;;;;;;4.90;3.03;;;;;;;;;;4465276;32;20232;-60
2021/06/21 05:08:34;;;;;;;6.75;3.22;;;;;;;;;;4465643;32;20193;-60
2021/06/21 05:10:59;;;;;;;3.80;3.40;;;;;;;;;;4466266;32;20360;-60
2021/06/21 05:13:25;;;;;;;5.68;3.58;;;;;;;;;;4459344;32;20607;-60
2021/06/21 05:15:51;;;;;;;4.47;3.55;;;;;;;;;;4450412;32;20272;-60
2021/06/21 05:18:17;;;;;;;3.65;2.90;;;;;;;;;;4451755;32;20356;-60
2021/06/21 05:20:42;;;;;;;5.03;3.53;;;;;;;;;;4465866;32;20503;-60
2021/06/21 05:23:08;;;;;;;5.60;3.70;;;;;;;;;;4465874;32;20343;-60
2021/06/21 05:25:34;;;;;;;4.50;2.92;;;;;;;;;;4465490;32;20298;-60
2021/06/21 05:28:01;;;;;;;4.15;2.65;;;;;;;;;;4465975;32;20228;-60
2021/06/21 05:30:26;;;;;;;4.62;3.30;;;;;;;;;;4462224;32;20331;-60
2021/06/21 05:32:52;;;;;;;4.07;3.17;;;;;;;;;;4464671;32;20259;-60
2021/06/21 05:35:20;;;;;;;8.63;3.50;;;;;;;;;;4465267;32;20216;-60
2021/06/21 05:37:46;;;;;;;5.57;3.47;;;;;;;;;;4465357;32;20276;-61
2021/06/21 05:40:12;;;;;;;5.47;3.35;;;;;;;;;;4464675;32;20220;-60
2021/06/21 05:42:37;;;;;;;3.45;2.80;;;;;;;;;;4465407;32;20382;-61
2021/06/21 05:45:03;;;;;;;4.82;3.00;;;;;;;;;;4464921;32;20200;-61
2021/06/21 05:47:29;;;;;;;3.95;2.60;;;;;;;;;;4466044;32;20224;-61
2021/06/21 05:49:54;;;;;;;3.53;2.92;;;;;;;;;;4465751;32;20197;-61
2021/06/21 05:52:20;;;;;;;4.30;3.03;;;;;;;;;;4464331;32;20556;-60
2021/06/21 05:54:45;;;;;;;3.42;2.75;;;;;;;;;;4463891;32;20212;-60
2021/06/21 05:57:11;;;;;;;4.30;2.72;;;;;;;;;;4464299;32;20566;-61
2021/06/21 05:59:37;;;;;;;4.87;2.50;;;;;;;;;;4463686;32;20306;-61
2021/06/21 06:02:03;;;;;;;4.78;2.78;;;;;;;;;;4464088;32;20231;-61
2021/06/21 06:04:28;;;;;;;5.50;2.80;;;;;;;;;;4463429;32;20267;-60
2021/06/21 06:06:54;;;;;;;8.05;3.08;;;;;;;;;;4463766;32;20236;-60
2021/06/21 06:09:19;;;;;;;5.15;2.87;;;;;;;;;;4466408;32;20201;-61
2021/06/21 06:11:45;;;;;;;5.35;3.28;;;;;;;;;;4465805;32;20250;-61
2021/06/21 06:14:10;;;;;;;5.68;2.72;;;;;;;;;;4453891;32;20212;-61
2021/06/21 06:16:36;;;;;;;4.18;2.78;;;;;;;;;;4454291;32;20267;-61
2021/06/21 06:19:01;;;;;;;6.43;3.15;;;;;;;;;;4465806;32;20250;-61
2021/06/21 06:21:29;;;;;;;4.65;2.58;;;;;;;;;;4460004;32;20762;-62
2021/06/21 06:23:59;;;;;;;2.70;2.45;;;;;;;;;;4449850;32;20251;-62
2021/06/21 06:26:24;;;;;;;3.47;2.85;;;;;;;;;;4450436;32;20228;-61
2021/06/21 06:28:50;;;;;;;5.90;3.15;;;;;;;;;;4450002;32;20247;-61
2021/06/21 06:31:15;;;;;;;3.78;3.10;;;;;;;;;;4448186;32;20244;-61
2021/06/21 06:33:41;;;;;;;6.62;3.28;;;;;;;;;;4449224;32;20200;-61
2021/06/21 06:36:06;;;;;;;5.57;3.20;;;;;;;;;;4449537;32;20347;-60
2021/06/21 06:38:32;;;;;;;8.05;3.25;;;;;;;;;;4450073;32;20269;-60
2021/06/21 06:40:58;;;;;;;4.15;2.67;;;;;;;;;;4449967;32;20392;-60
2021/06/21 06:43:24;;;;;;;9.43;3.70;;;;;;;;;;4450168;32;20325;-59
2021/06/21 06:45:50;;;;;;;3.95;3.03;;;;;;;;;;4448825;32;20291;-59
2021/06/21 06:48:15;;;;;;;4.03;2.92;;;;;;;;;;4448889;32;20314;-60
2021/06/21 06:50:41;;;;;;;4.12;3.08;;;;;;;;;;4449751;32;20326;-60
2021/06/21 06:53:07;;;;;;;6.68;2.92;;;;;;;;;;4450938;32;20731;-60
2021/06/21 06:58:16;;;;;;;3.45;3.00;;;;;;;;;;4449785;32;20257;-60
2021/06/21 07:00:42;;;;;;;3.70;3.33;;;;;;;;;;4449281;32;20908;-60
2021/06/21 07:03:08;;;;;;;4.12;3.15;;;;;;;;;;4449111;32;20232;-60
2021/06/21 07:05:35;;;;;;;4.70;3.78;;;;;;;;;;4448377;32;20232;-61
2021/06/21 07:08:00;;;;;;;5.85;3.25;;;;;;;;;;4450268;32;20231;-61
2021/06/21 07:10:26;;;;;;;5.78;3.05;;;;;;;;;;4448869;32;20782;-59
2021/06/21 07:12:52;;;;;;;8.30;2.90;;;;;;;;;;4449926;32;20217;-60
2021/06/21 07:15:18;;;;;;;6.93;3.60;;;;;;;;;;4449199;32;20220;-61
2021/06/21 07:17:44;;;;;;;4.93;2.60;;;;;;;;;;4462075;32;20217;-60
2021/06/21 07:20:11;;;;;;;3.03;2.65;;;;;;;;;;4464022;32;20720;-61
2021/06/21 07:22:37;;;;;;;4.10;2.92;;;;;;;;;;4462913;32;20322;-60
2021/06/21 07:25:04;;;;;;;3.60;2.33;;;;;;;;;;4463854;32;20277;-61
2021/06/21 07:27:29;;;;;;;3.03;2.72;;;;;;;;;;4463021;32;20567;-60
2021/06/21 07:29:55;;;;;;;5.57;3.03;;;;;;;;;;4463856;32;20249;-60
2021/06/21 07:32:20;;;;;;;4.78;2.70;;;;;;;;;;4448598;32;20240;-61
2021/06/21 07:34:46;;;;;;;3.75;2.67;;;;;;;;;;4448705;32;20217;-61
2021/06/21 07:37:11;;;;;;;3.45;2.33;;;;;;;;;;4448064;32;20692;-61
2021/06/21 07:39:37;;;;;;;2.90;2.30;;;;;;;;;;4448818;32;20371;-61
2021/06/21 07:42:03;;;;;;;2.87;2.42;;;;;;;;;;4462793;32;20254;-61
2021/06/21 07:44:29;;;;;;;4.30;2.50;;;;;;;;;;4463953;32;20266;-60
2021/06/21 07:46:55;;;;;;;5.00;3.50;;;;;;;;;;4456693;32;20240;-61
2021/06/21 07:49:20;;;;;;;3.53;2.83;;;;;;;;;;4450283;32;20268;-60
2021/06/21 07:51:46;;;;;;;9.32;3.42;;;;;;;;;;4451460;32;20307;-60
2021/06/21 07:54:12;;;;;;;8.70;3.70;;;;;;;;;;4464297;32;20686;-60
2021/06/21 07:56:37;;;;;;;5.32;3.37;;;;;;;;;;4465726;32;20224;-60
2021/06/21 07:59:03;;;;;;;5.32;2.87;;;;;;;;;;4466481;32;20216;-60
2021/06/21 08:01:29;;;;;;;5.80;3.50;;;;;;;;;;4467372;32;20276;-61
2021/06/21 08:03:56;;;;;;;3.78;2.78;;;;;;;;;;4466276;32;20258;-61
2021/06/21 08:06:23;;;;;;;2.92;2.65;;;;;;;;;;4466712;32;20225;-60
2021/06/21 08:08:48;;;;;;;3.05;2.47;;;;;;;;;;4466813;32;20605;-60
2021/06/21 08:11:14;;;;;;;3.85;3.03;;;;;;;;;;4466248;32;20246;-60
2021/06/21 08:13:39;;;;;;;5.57;2.47;;;;;;;;;;4466200;32;20563;-61
2021/06/21 08:16:06;;;;;;;4.22;3.10;;;;;;;;;;4466438;32;20675;-60
2021/06/21 08:18:31;;;;;;;2.28;2.08;;;;;;;;;;4449920;32;20236;-60
2021/06/21 08:20:59;;;;;;;6.80;3.00;;;;;;;;;;4450846;32;20387;-60
2021/06/21 08:23:24;;;;;;;3.10;2.62;;;;;;;;;;4450512;32;20365;-61
2021/06/21 08:25:50;;;;;;;3.50;2.53;;;;;;;;;;4450635;32;20323;-60
2021/06/21 08:28:16;;;;;;;3.97;2.53;;;;;;;;;;4451363;32;20339;-59
2021/06/21 08:30:42;;;;;;;4.87;2.60;;;;;;;;;;4455342;32;20298;-61
2021/06/21 08:33:08;;;;;;;4.40;2.78;;;;;;;;;;4466498;32;20271;-60
2021/06/21 08:35:36;;;;;;;7.22;2.70;;;;;;;;;;4467101;32;20325;-61
2021/06/21 08:38:02;;;;;;;7.78;2.80;;;;;;;;;;4467094;32;20629;-60
2021/06/21 08:40:28;;;;;;;2.87;2.50;;;;;;;;;;4466677;32;20296;-60
2021/06/21 08:42:54;;;;;;;6.20;2.78;;;;;;;;;;4465850;32;20246;-59
2021/06/21 08:45:19;;;;;;;3.42;2.75;;;;;;;;;;4466746;32;20209;-59
2021/06/21 08:47:45;;;;;;;4.25;2.90;;;;;;;;;;4466666;32;20259;-60
2021/06/21 08:50:13;;;;;;;4.47;2.95;;;;;;;;;;4466677;32;20283;-60
2021/06/21 08:52:42;;;;;;;3.22;2.83;;;;;;;;;;4467033;32;20238;-60
2021/06/21 08:55:08;;;;;;;6.75;3.25;;;;;;;;;;4466890;32;20280;-59
2021/06/21 08:57:36;;;;;;;3.03;2.65;;;;;;;;;;4465763;32;20251;-60
2021/06/21 09:00:08;;;;;;;4.45;3.65;;;;;;;;;;4465223;32;20510;-58
2021/06/21 09:02:33;;;;;;;3.50;2.70;;;;;;;;;;4465444;32;20224;-59
2021/06/21 09:05:00;;;;;;;2.83;2.60;;;;;;;;;;4466610;32;20228;-59
2021/06/21 09:07:28;;;;;;;3.10;2.72;;;;;;;;;;4466449;32;20243;-60
2021/06/21 09:09:57;;;;;;;3.85;2.80;;;;;;;;;;4466645;32;20258;-58
2021/06/21 09:12:27;;;;;;;3.58;2.58;;;;;;;;;;4464813;32;20228;-60
2021/06/21 09:14:55;;;;;;;4.28;3.20;;;;;;;;;;4450714;32;20266;-59
2021/06/21 09:17:23;;;;;;;3.72;2.97;;;;;;;;;;4461797;32;20254;-59
2021/06/21 09:19:57;;;;;;;5.20;2.22;;;;;;;;;;4466283;32;20222;-59
2021/06/21 09:22:27;;;;;;;8.55;2.90;;;;;;;;;;4465872;32;20729;-59
2021/06/21 09:24:55;;;;;;;6.57;2.37;;;;;;;;;;4462196;32;20264;-59
2021/06/21 09:27:22;;;;;;;6.15;2.30;;;;;;;;;;4466010;32;20597;-58
2021/06/21 09:29:48;;;;;;;10.15;2.78;;;;;;;;;;4465777;32;20250;-60
2021/06/21 09:32:14;;;;;;;3.22;2.45;;;;;;;;;;4449654;32;20326;-59
2021/06/21 09:34:41;;;;;;;2.60;2.40;;;;;;;;;;4451088;32;20574;-60
2021/06/21 09:37:12;;;;;;;4.05;2.95;;;;;;;;;;4450261;32;20307;-59
2021/06/21 09:39:41;;;;;;;6.50;2.45;;;;;;;;;;4449953;32;20306;-59
2021/06/21 09:42:24;;;;;;;3.80;2.12;;;;;;;;;;4449834;32;20424;-60
2021/06/21 09:44:54;;;;;;;3.72;3.10;;;;;;;;;;4450347;32;20197;-59
2021/06/21 09:47:30;;;;;;;3.28;2.00;;;;;;;;;;4448956;32;20301;-58
2021/06/21 09:50:08;;;;;;;6.15;2.40;;;;;;;;;;4450700;32;20243;-59
2021/06/21 09:52:34;;;;;;;6.12;2.67;;;;;;;;;;4451233;32;20244;-59
2021/06/21 09:55:09;;;;;;;3.03;2.42;;;;;;;;;;4449529;32;20223;-59
2021/06/21 09:57:36;;;;;;;3.03;2.70;;;;;;;;;;4450821;32;20689;-59
2021/06/21 10:00:05;;;;;;;4.90;2.55;;;;;;;;;;4450020;32;20557;-59
2021/06/21 10:02:31;;;;;;;4.30;3.05;;;;;;;;;;4450552;32;20545;-60
2021/06/21 10:04:56;;;;;;;3.87;2.75;;;;;;;;;;4450297;32;20267;-59
2021/06/21 10:07:35;;;;;;;3.08;2.60;;;;;;;;;;4450421;32;20250;-59
2021/06/21 10:10:12;;;;;;;4.10;2.30;;;;;;;;;;4450740;32;20196;-58
2021/06/21 10:12:38;;;;;;;3.87;2.37;;;;;;;;;;4452223;32;20309;-59
2021/06/21 10:15:06;;;;;;;4.32;2.72;;;;;;;;;;4466262;32;20608;-59
2021/06/21 10:17:32;;;;;;;3.60;2.67;;;;;;;;;;4458519;32;20242;-59
2021/06/21 10:19:57;;;;;;;2.22;2.03;;;;;;;;;;4466284;32;20204;-59
2021/06/21 10:22:25;;;;;;;3.12;2.03;;;;;;;;;;4466204;32;20220;-59
2021/06/21 10:24:53;;;;;;;6.90;2.53;;;;;;;;;;4454485;32;20258;-59
2021/06/21 10:27:24;;;;;;;2.30;1.90;;;;;;;;;;4450663;32;20296;-59
2021/06/21 10:29:50;;;;;;;5.22;2.95;;;;;;;;;;4449891;32;20646;-60
2021/06/21 10:32:17;;;;;;;4.45;2.40;;;;;;;;;;4453592;32;20228;-60
2021/06/21 10:34:46;;;;;;;3.12;2.80;;;;;;;;;;4450252;32;20193;-60
2021/06/21 10:37:21;;;;;;;2.60;2.30;;;;;;;;;;4450424;32;20254;-59
2021/06/21 10:39:53;;;;;;;5.07;3.35;;;;;;;;;;4449993;32;20574;-60
2021/06/21 10:42:24;;;;;;;2.70;2.15;;;;;;;;;;4462598;32;20311;-60
2021/06/21 10:44:57;;;;;;;3.80;2.62;;;;;;;;;;4464163;32;20220;-59
2021/06/21 10:47:28;;;;;;;2.65;1.90;;;;;;;;;;4466262;32;20254;-59
2021/06/21 10:50:21;;;;;;;2.67;2.00;;;;;;;;;;4465538;32;20226;-59
2021/06/21 10:52:47;;;;;;;3.10;2.25;;;;;;;;;;4466042;32;20635;-59
2021/06/21 10:58:01;;;;;;;2.30;1.87;;;;;;;;;;4465895;32;20310;-60
2021/06/21 11:00:44;;;;;;;9.15;2.45;;;;;;;;;;4461703;32;20345;-60
2021/06/21 11:03:25;;;;;;;4.90;2.15;;;;;;;;;;4449541;32;20329;-60
2021/06/21 11:05:53;;;;;;;2.72;2.20;;;;;;;;;;4449257;32;20326;-59
2021/06/21 11:08:20;;;;;;;3.42;2.78;;;;;;;;;;4449597;32;20240;-59
2021/06/21 11:10:49;;;;;;;5.50;2.70;;;;;;;;;;4449518;32;20200;-59
2021/06/21 11:13:36;;;;;;;3.87;2.65;;;;;;;;;;4449809;32;20247;-58
2021/06/21 11:16:14;;;;;;;5.87;2.45;;;;;;;;;;4452401;32;20211;-59
2021/06/21 11:18:40;;;;;;;3.10;2.50;;;;;;;;;;4450181;32;20204;-58
2021/06/21 11:21:16;;;;;;;3.17;2.10;;;;;;;;;;4450036;32;20328;-58
2021/06/21 11:23:44;;;;;;;2.78;2.40;;;;;;;;;;4452097;32;20199;-60
2021/06/21 11:26:09;;;;;;;5.22;2.75;;;;;;;;;;4452639;32;20241;-59
2021/06/21 11:28:36;;;;;;;2.95;2.62;;;;;;;;;;4452679;32;20227;-59
2021/06/21 11:31:24;;;;;;;4.07;2.92;;;;;;;;;;4456313;32;20724;-60
2021/06/21 11:33:58;;;;;;;2.78;2.40;;;;;;;;;;4452518;32;20196;-60
2021/06/21 11:36:40;;;;;;;4.32;2.22;;;;;;;;;;4451376;32;20629;-64
2021/06/21 11:39:30;;;;;;;3.85;1.92;;;;;;;;;;4453351;32;20219;-60
2021/06/21 11:42:05;;;;;;;2.78;2.40;;;;;;;;;;4453356;32;20208;-59
2021/06/21 11:44:39;;;;;;;18.27;3.35;;;;;;;;;;4452848;32;20224;-60
2021/06/21 11:47:14;;;;;;;4.22;2.45;;;;;;;;;;4452397;32;20232;-60
2021/06/21 11:49:40;;;;;;;2.80;2.10;;;;;;;;;;4452889;32;20216;-59
2021/06/21 11:52:06;;;;;;;3.40;2.30;;;;;;;;;;4453090;32;20283;-59
2021/06/21 11:54:40;;;;;;;3.35;2.55;;;;;;;;;;4452953;32;20217;-59
2021/06/21 11:57:07;;;;;;;2.62;2.37;;;;;;;;;;4451584;32;20304;-59
2021/06/21 11:59:38;;;;;;;3.97;2.35;;;;;;;;;;4452742;32;20224;-59
2021/06/21 12:02:13;;;;;;;6.55;2.75;;;;;;;;;;4453142;32;20580;-59
2021/06/21 12:04:41;;;;;;;2.45;2.12;;;;;;;;;;4452542;32;20240;-59
2021/06/21 12:07:08;;;;;;;4.60;2.90;;;;;;;;;;4452758;32;20649;-59
2021/06/21 12:10:00;;;;;;;2.35;1.92;;;;;;;;;;4452951;32;20242;-59
2021/06/21 12:12:28;;;;;;;4.60;2.17;;;;;;;;;;4450462;32;20256;-59
2021/06/21 12:14:54;;;;;;;2.62;2.00;;;;;;;;;;4468181;32;20197;-59
2021/06/21 12:17:26;;;;;;;4.93;2.15;;;;;;;;;;4467948;32;20291;-59
2021/06/21 12:20:18;;;;;;;2.87;2.53;;;;;;;;;;4468283;32;20223;-59
2021/06/21 12:23:00;;;;;;;3.05;2.30;;;;;;;;;;4466457;32;20236;-59
2021/06/21 12:25:29;;;;;;;2.92;2.53;;;;;;;;;;4467798;32;20678;-60
2021/06/21 12:28:07;;;;;;;7.12;2.20;;;;;;;;;;4467599;32;20264;-59
2021/06/21 12:30:37;;;;;;;8.05;2.45;;;;;;;;;;4467062;32;20245;-59
2021/06/21 12:33:32;;;;;;;4.00;2.37;;;;;;;;;;4452524;32;20633;-59
2021/06/21 12:36:24;;;;;;;2.80;2.22;;;;;;;;;;4452132;32;20197;-59
2021/06/21 12:39:04;;;;;;;3.92;2.37;;;;;;;;;;4452228;32;20627;-59
2021/06/21 12:41:35;;;;;;;2.70;2.35;;;;;;;;;;4451829;32;20330;-59
2021/06/21 12:44:11;;;;;;;4.10;2.83;;;;;;;;;;4451616;32;20304;-59
2021/06/21 12:46:47;;;;;;;4.00;2.67;;;;;;;;;;4451999;32;20596;-59
2021/06/21 12:49:16;;;;;;;4.87;2.92;;;;;;;;;;4451965;32;20261;-59
2021/06/21 12:51:43;;;;;;;3.45;2.83;;;;;;;;;;4452358;32;20653;-59
2021/06/21 12:54:10;;;;;;;4.18;2.70;;;;;;;;;;4451899;32;20279;-59
2021/06/21 12:56:41;;;;;;;3.20;2.60;;;;;;;;;;4451907;32;20300;-59
2021/06/21 12:59:26;;;;;;;5.15;2.72;;;;;;;;;;4451925;32;20197;-59
2021/06/21 13:01:52;;;;;;;3.70;2.55;;;;;;;;;;4451885;32;20722;-59
2021/06/21 13:04:18;;;;;;;4.05;2.85;;;;;;;;;;4451311;32;20232;-59
2021/06/21 13:06:47;;;;;;;3.70;2.53;;;;;;;;;;4451244;32;20250;-59
2021/06/21 13:09:17;;;;;;;3.62;3.33;;;;;;;;;;4451693;32;20205;-59
2021/06/21 13:11:51;;;;;;;4.90;3.00;;;;;;;;;;4451716;32;20247;-59
2021/06/21 13:14:18;;;;;;;3.85;2.90;;;;;;;;;;4451402;32;20207;-59
2021/06/21 13:16:44;;;;;;;3.40;2.65;;;;;;;;;;4458109;32;20280;-59
2021/06/21 13:19:13;;;;;;;5.03;3.15;;;;;;;;;;4467034;32;20213;-58
2021/06/21 13:21:39;;;;;;;3.60;2.37;;;;;;;;;;4466652;32;20212;-59
2021/06/21 13:24:06;;;;;;;5.90;3.35;;;;;;;;;;4466206;32;20275;-62
2021/06/21 13:26:37;;;;;;;5.25;2.90;;;;;;;;;;4466667;32;20228;-59
2021/06/21 13:29:26;;;;;;;5.97;2.47;;;;;;;;;;4466268;32;20197;-59
2021/06/21 13:31:53;;;;;;;2.42;2.22;;;;;;;;;;4458038;32;20495;-59
2021/06/21 13:34:45;;;;;;;4.85;2.72;;;;;;;;;;4451067;32;20192;-59
2021/06/21 13:37:20;;;;;;;2.60;2.40;;;;;;;;;;4450918;32;20341;-59
2021/06/21 13:40:01;;;;;;;3.12;2.33;;;;;;;;;;4451004;32;20518;-59
2021/06/21 13:42:38;;;;;;;7.80;2.87;;;;;;;;;;4451045;32;20665;-59
2021/06/21 13:45:13;;;;;;;4.30;2.62;;;;;;;;;;4450318;32;20238;-59
2021/06/21 13:47:45;;;;;;;4.37;2.70;;;;;;;;;;4451087;32;20294;-59
2021/06/21 13:50:17;;;;;;;4.35;3.05;;;;;;;;;;4451136;32;20613;-59
2021/06/21 13:52:47;;;;;;;3.60;2.50;;;;;;;;;;4451350;32;20232;-59
2021/06/21 13:55:18;;;;;;;6.53;3.17;;;;;;;;;;4451028;32;20259;-59
2021/06/21 13:57:52;;;;;;;3.22;2.53;;;;;;;;;;4451372;32;20284;-58
2021/06/21 14:00:30;;;;;;;5.80;2.58;;;;;;;;;;4450580;32;20704;-59
2021/06/21 14:02:56;;;;;;;6.57;3.42;;;;;;;;;;4449528;32;20291;-58
2021/06/21 14:05:22;;;;;;;3.47;3.00;;;;;;;;;;4449951;32;20192;-59
2021/06/21 14:07:48;;;;;;;4.12;2.70;;;;;;;;;;4450546;32;20345;-59
2021/06/21 14:10:14;;;;;;;7.00;2.65;;;;;;;;;;4449916;32;20292;-59
2021/06/21 14:12:39;;;;;;;9.90;3.65;;;;;;;;;;4452447;32;20237;-59
2021/06/21 14:15:05;;;;;;;4.03;2.95;;;;;;;;;;4466404;32;20267;-59
2021/06/21 14:17:31;;;;;;;2.25;2.05;;;;;;;;;;4465937;32;20243;-58
2021/06/21 14:19:58;;;;;;;4.25;3.10;;;;;;;;;;4465561;32;20685;-58
2021/06/21 14:22:24;;;;;;;4.03;2.75;;;;;;;;;;4465853;32;20233;-58
2021/06/21 14:24:50;;;;;;;3.25;2.37;;;;;;;;;;4465022;32;20267;-58
2021/06/21 14:27:16;;;;;;;4.72;2.62;;;;;;;;;;4466383;32;20280;-58
2021/06/21 14:29:41;;;;;;;4.50;2.45;;;;;;;;;;4465057;32;20212;-58
2021/06/21 14:32:09;;;;;;;3.55;2.50;;;;;;;;;;4452533;32;20694;-60
2021/06/21 14:34:35;;;;;;;3.87;2.65;;;;;;;;;;4450906;32;20574;-59
2021/06/21 14:37:01;;;;;;;6.57;3.00;;;;;;;;;;4451243;32;20250;-59
2021/06/21 14:39:27;;;;;;;10.07;2.50;;;;;;;;;;4458426;32;20279;-59
2021/06/21 14:41:53;;;;;;;3.47;2.33;;;;;;;;;;4457241;32;20237;-59
2021/06/21 14:44:18;;;;;;;4.87;2.97;;;;;;;;;;4450660;32;20275;-58
2021/06/21 14:46:43;;;;;;;4.32;2.65;;;;;;;;;;4450309;32;20622;-58
2021/06/21 14:49:10;;;;;;;2.42;2.17;;;;;;;;;;4449107;32;20236;-58
2021/06/21 14:51:36;;;;;;;2.83;2.35;;;;;;;;;;4450507;32;20250;-59
2021/06/21 14:54:01;;;;;;;6.25;2.70;;;;;;;;;;4450422;32;20208;-59
2021/06/21 14:56:28;;;;;;;3.95;2.95;;;;;;;;;;4448176;32;20624;-59
2021/06/21 14:58:53;;;;;;;2.58;2.30;;;;;;;;;;4451620;32;20312;-59